Time;durP1;ratioP1;P1;durP2;ratioP2;P2;SDS_P1;SDS_P2;PMS_P1;PMS_P2;Temp;Humidity;BMP_temperature;BMP_pressure;BME280_temperature;BME280_humidity;BME280_pressure;Samples;Min_cycle;Max_cycle;Signal;HPM_P1;HPM_P2
2021/11/11 00:01:17;;;;;;;12.75;11.15;;;;;;;6.98;70.75;101608.06;5003463;28;20053;-45
2021/11/11 00:03:42;;;;;;;14.68;12.18;;;;;;;6.98;70.97;101607.16;5002046;28;20121;-46
2021/11/11 00:06:07;;;;;;;12.85;10.85;;;;;;;6.97;70.66;101619.38;5007864;28;20030;-45
2021/11/11 00:08:34;;;;;;;11.40;10.27;;;;;;;6.94;71.02;101616.72;4993381;28;20085;-46
2021/11/11 00:11:00;;;;;;;13.93;11.50;;;;;;;6.95;70.71;101617.59;4992909;28;20030;-45
2021/11/11 00:13:25;;;;;;;14.13;11.57;;;;;;;6.94;70.87;101616.72;4996736;28;20025;-46
2021/11/11 00:15:51;;;;;;;12.13;10.93;;;;;;;6.93;70.96;101621.06;5010910;28;20025;-45
2021/11/11 00:18:16;;;;;;;13.77;11.70;;;;;;;6.94;70.86;101627.22;5007760;28;20069;-45
2021/11/11 00:20:42;;;;;;;12.98;11.45;;;;;;;6.93;70.87;101622.81;4992605;28;20038;-45
2021/11/11 00:23:07;;;;;;;11.82;10.65;;;;;;;6.93;70.66;101615.84;4992781;28;20038;-46
2021/11/11 00:25:33;;;;;;;14.13;10.85;;;;;;;6.91;70.55;101624.53;4993519;28;20084;-45
2021/11/11 00:27:58;;;;;;;13.95;11.65;;;;;;;6.94;70.54;101629.84;5000531;28;20033;-46
2021/11/11 00:30:24;;;;;;;13.23;11.80;;;;;;;6.91;70.41;101632.41;5012261;28;20505;-46
2021/11/11 00:32:50;;;;;;;12.40;11.10;;;;;;;6.91;70.54;101638.50;5001836;28;20038;-45
2021/11/11 00:35:23;;;;;;;14.88;11.75;;;;;;;6.91;70.77;101641.13;5011560;28;20030;-45
2021/11/11 00:37:50;;;;;;;12.27;11.00;;;;;;;6.89;70.83;101647.19;5005623;28;20030;-45
2021/11/11 00:40:15;;;;;;;12.82;11.40;;;;;;;6.89;70.74;101639.31;4997871;28;20556;-45
2021/11/11 00:42:41;;;;;;;12.57;11.25;;;;;;;6.91;70.41;101640.25;5002209;28;20061;-46
2021/11/11 00:45:07;;;;;;;12.43;11.23;;;;;;;6.89;70.40;101645.47;5004183;28;20076;-46
2021/11/11 00:47:33;;;;;;;12.18;10.98;;;;;;;6.91;70.46;101638.50;5009816;28;20026;-45
2021/11/11 00:49:58;;;;;;;12.63;11.13;;;;;;;6.89;70.69;101639.31;5010957;28;20030;-45
2021/11/11 00:52:24;;;;;;;11.65;10.27;;;;;;;6.87;70.76;101641.91;5008801;28;20030;-45
2021/11/11 00:54:49;;;;;;;12.18;10.98;;;;;;;6.87;70.53;101635.81;5010115;28;20097;-46
2021/11/11 00:57:15;;;;;;;12.75;10.88;;;;;;;6.87;70.93;101630.56;5000388;28;20056;-45
2021/11/11 00:59:42;;;;;;;12.93;11.20;;;;;;;6.86;70.60;101628.75;4995206;28;20030;-46
2021/11/11 01:02:10;;;;;;;14.10;12.48;;;;;;;6.88;70.68;101622.72;5008167;28;20042;-46
2021/11/11 01:04:36;;;;;;;11.80;10.68;;;;;;;6.87;70.66;101623.56;5002884;28;20064;-45
2021/11/11 01:07:07;;;;;;;11.90;10.70;;;;;;;6.83;70.50;101618.22;4992198;28;20509;-45
2021/11/11 01:09:32;;;;;;;12.27;11.07;;;;;;;6.83;70.54;101619.09;5002220;28;20042;-46
2021/11/11 01:11:58;;;;;;;13.65;11.43;;;;;;;6.84;70.48;101617.38;5010267;28;20437;-46
2021/11/11 01:14:23;;;;;;;13.38;11.50;;;;;;;6.83;70.56;101624.34;4996443;28;20058;-46
2021/11/11 01:16:49;;;;;;;12.70;11.40;;;;;;;6.83;70.52;101628.72;5005305;28;20486;-45
2021/11/11 01:19:14;;;;;;;12.73;10.93;;;;;;;6.83;70.42;101628.72;5000420;28;20057;-45
2021/11/11 01:21:40;;;;;;;12.30;10.73;;;;;;;6.86;70.47;101623.53;5011727;28;20029;-45
2021/11/11 01:24:06;;;;;;;13.68;11.77;;;;;;;6.85;70.18;101621.75;5011166;28;20034;-46
2021/11/11 01:26:32;;;;;;;14.23;11.65;;;;;;;6.83;70.55;101623.47;5003413;28;20022;-44
2021/11/11 01:28:57;;;;;;;12.25;10.95;;;;;;;6.85;70.65;101624.38;5009413;28;20030;-45
2021/11/11 01:31:22;;;;;;;12.85;11.48;;;;;;;6.84;70.43;101618.28;5009143;28;20108;-45
2021/11/11 01:33:47;;;;;;;13.23;11.43;;;;;;;6.79;70.49;101612.91;5005749;28;20034;-46
2021/11/11 01:36:13;;;;;;;15.15;11.20;;;;;;;6.78;70.52;101603.28;5001182;28;20077;-46
2021/11/11 01:38:38;;;;;;;15.13;11.23;;;;;;;6.76;70.27;101602.34;5002954;28;20041;-46
2021/11/11 01:41:07;;;;;;;12.50;11.20;;;;;;;6.76;70.62;101601.47;5001758;28;20061;-45
2021/11/11 01:43:33;;;;;;;12.63;11.02;;;;;;;6.78;70.35;101599.78;4992851;28;20031;-45
2021/11/11 01:45:59;;;;;;;13.05;11.10;;;;;;;6.78;70.33;101590.19;5009079;28;20037;-44
2021/11/11 01:48:26;;;;;;;12.45;11.18;;;;;;;6.79;70.29;101591.94;5011135;28;20029;-45
2021/11/11 01:50:52;;;;;;;12.90;11.20;;;;;;;6.75;70.40;101595.34;5009303;28;20165;-45
2021/11/11 01:53:17;;;;;;;14.55;11.65;;;;;;;6.73;70.42;101589.19;5014637;28;20108;-45
2021/11/11 01:55:45;;;;;;;12.65;11.18;;;;;;;6.76;70.40;101586.63;5012914;28;20587;-45
2021/11/11 01:58:10;;;;;;;12.45;11.18;;;;;;;6.78;70.34;101589.28;5012432;28;20026;-45
2021/11/11 02:01:01;;;;;;;12.65;11.35;;;;;;;6.78;70.06;101584.94;5010570;28;20084;-45
2021/11/11 02:03:28;;;;;;;;;;;;;;;6.73;70.42;101585.69;5000601;28;20429;-45
2021/11/11 02:05:53;;;;;;;13.43;11.18;;;;;;;6.72;70.23;101584.78;5003562;28;19968;-44
2021/11/11 02:08:19;;;;;;;13.60;12.07;;;;;;;6.71;70.55;101583.03;4998257;28;20026;-45
2021/11/11 02:10:45;;;;;;;12.30;11.02;;;;;;;6.70;70.53;101586.47;5008033;28;20576;-46
2021/11/11 02:13:11;;;;;;;13.30;11.07;;;;;;;6.67;70.44;101581.19;5012942;28;20113;-46
2021/11/11 02:15:37;;;;;;;13.32;11.93;;;;;;;6.70;70.76;101578.63;5014552;28;20436;-45
2021/11/11 02:18:05;;;;;;;14.07;11.75;;;;;;;6.70;70.15;101576.00;5002003;28;20041;-46
2021/11/11 02:20:33;;;;;;;12.50;10.88;;;;;;;6.71;70.24;101576.88;4996692;28;20041;-46
2021/11/11 02:23:00;;;;;;;12.80;11.15;;;;;;;6.70;70.44;101575.13;5008453;28;20103;-45
2021/11/11 02:25:27;;;;;;;12.88;11.30;;;;;;;6.70;70.34;101576.00;4993774;28;20034;-46
2021/11/11 02:28:07;;;;;;;12.32;11.07;;;;;;;6.67;70.21;101576.81;4995189;28;20109;-45
2021/11/11 02:30:34;;;;;;;11.83;10.63;;;;;;;6.67;70.15;101573.34;4994334;28;20113;-45
2021/11/11 02:33:00;;;;;;;13.82;11.13;;;;;;;6.67;70.19;101571.56;4993659;28;20522;-45
2021/11/11 02:35:27;;;;;;;11.65;10.43;;;;;;;6.68;70.22;101577.72;5011016;28;20053;-45
2021/11/11 02:37:52;;;;;;;12.25;10.48;;;;;;;6.67;70.57;101582.06;5007158;28;20378;-45
2021/11/11 02:40:21;;;;;;;12.60;11.10;;;;;;;6.67;70.15;101589.06;4998677;28;20041;-43
2021/11/11 02:42:47;;;;;;;12.93;11.20;;;;;;;6.66;70.58;101584.66;4993834;28;20030;-44
2021/11/11 02:45:19;;;;;;;12.73;11.43;;;;;;;6.68;70.13;101582.97;4994975;28;20398;-46
2021/11/11 02:47:45;;;;;;;14.00;11.85;;;;;;;6.64;70.40;101573.25;4977657;28;20038;-45
2021/11/11 02:50:11;;;;;;;14.40;11.93;;;;;;;6.62;70.44;101575.84;4994470;28;20441;-43
2021/11/11 02:52:37;;;;;;;12.45;11.07;;;;;;;6.61;70.60;101574.09;4993562;28;20022;-46
2021/11/11 02:55:03;;;;;;;12.07;10.77;;;;;;;6.60;70.56;101574.03;4995400;28;20105;-45
2021/11/11 02:57:35;;;;;;;13.25;11.77;;;;;;;6.62;70.10;101573.22;5011429;28;20120;-45
2021/11/11 03:00:07;;;;;;;11.75;10.25;;;;;;;6.62;70.41;101578.47;5011081;28;20393;-46
2021/11/11 03:02:35;;;;;;;12.18;10.93;;;;;;;6.58;70.72;101571.38;4994906;28;20484;-45
2021/11/11 03:05:02;;;;;;;12.48;11.27;;;;;;;6.60;70.18;101568.81;4994441;28;20466;-45
2021/11/11 03:07:28;;;;;;;12.27;11.07;;;;;;;6.61;70.45;101575.81;4997903;28;20038;-45
2021/11/11 03:09:54;;;;;;;11.82;10.63;;;;;;;6.59;70.02;101572.25;4995285;28;20057;-45
2021/11/11 03:12:21;;;;;;;11.30;10.20;;;;;;;6.58;70.37;101575.72;5005257;28;20018;-45
2021/11/11 03:14:47;;;;;;;12.82;11.43;;;;;;;6.57;70.68;101573.97;5002584;28;20105;-45
2021/11/11 03:17:12;;;;;;;12.48;11.20;;;;;;;6.57;70.28;101563.50;4993910;28;20490;-45
2021/11/11 03:19:39;;;;;;;14.50;10.90;;;;;;;6.54;70.31;101565.19;5001066;28;20050;-45
2021/11/11 03:22:11;;;;;;;11.57;10.38;;;;;;;6.53;70.06;101568.66;5006980;28;20048;-45
2021/11/11 03:24:38;;;;;;;11.80;9.88;;;;;;;6.53;70.43;101568.66;5000578;28;20026;-44
2021/11/11 03:27:07;;;;;;;12.15;10.65;;;;;;;6.52;70.14;101571.25;5005245;28;20030;-45
2021/11/11 03:29:32;;;;;;;12.82;10.80;;;;;;;6.51;70.51;101570.34;4997959;28;20032;-45
2021/11/11 03:31:58;;;;;;;11.75;10.57;;;;;;;6.51;70.45;101570.34;4994175;28;20030;-45
2021/11/11 03:34:23;;;;;;;12.40;11.10;;;;;;;6.51;70.74;101559.00;5006578;28;20037;-46
2021/11/11 03:36:53;;;;;;;11.75;10.52;;;;;;;6.49;70.47;101556.34;5003040;28;20120;-44
2021/11/11 03:39:19;;;;;;;12.82;11.30;;;;;;;6.50;70.39;101573.81;4995473;28;20482;-45
2021/11/11 03:41:46;;;;;;;11.68;10.48;;;;;;;6.49;70.67;101574.69;5002729;28;20505;-45
2021/11/11 03:44:12;;;;;;;12.32;11.13;;;;;;;6.48;70.68;101570.31;5002147;28;20022;-45
2021/11/11 03:46:46;;;;;;;10.80;9.65;;;;;;;6.49;70.25;101577.31;4996345;28;20482;-45
2021/11/11 03:49:11;;;;;;;13.57;10.60;;;;;;;6.48;70.06;101575.53;5011985;28;20026;-46
2021/11/11 03:51:36;;;;;;;12.80;11.45;;;;;;;6.50;70.13;101580.81;4999213;28;20021;-45
2021/11/11 03:54:03;;;;;;;11.25;10.13;;;;;;;6.48;70.45;101580.78;4998582;28;20111;-45
2021/11/11 03:56:28;;;;;;;11.85;10.65;;;;;;;6.43;70.29;101582.41;4998361;28;20022;-46
2021/11/11 03:58:53;;;;;;;14.90;11.60;;;;;;;6.45;70.42;101585.94;5001932;28;20017;-44
2021/11/11 04:01:19;;;;;;;12.25;10.88;;;;;;;6.45;70.36;101588.56;4991611;28;20030;-45
2021/11/11 04:03:44;;;;;;;14.50;11.15;;;;;;;6.41;70.24;101591.97;5003718;28;20037;-45
2021/11/11 04:06:09;;;;;;;13.25;11.57;;;;;;;6.45;70.11;101595.53;5010693;28;20038;-45
2021/11/11 04:08:35;;;;;;;11.88;10.60;;;;;;;6.42;70.10;101593.75;5009042;28;20172;-45
2021/11/11 04:11:01;;;;;;;11.73;10.52;;;;;;;6.41;70.47;101594.59;5006547;28;20072;-45
2021/11/11 04:13:28;;;;;;;12.43;11.10;;;;;;;6.39;70.52;101585.81;4999680;28;20392;-45
2021/11/11 04:15:54;;;;;;;13.70;11.20;;;;;;;6.39;70.20;101580.56;4998960;28;20555;-45
2021/11/11 04:18:19;;;;;;;12.32;11.02;;;;;;;6.39;70.52;101591.94;4998358;28;20026;-45
2021/11/11 04:20:45;;;;;;;12.70;11.35;;;;;;;6.41;70.43;101589.34;4991073;28;20478;-45
2021/11/11 04:23:10;;;;;;;12.40;11.07;;;;;;;6.39;70.22;101589.31;5003483;28;20165;-45
2021/11/11 04:25:44;;;;;;;11.48;10.30;;;;;;;6.36;70.67;101586.63;4992860;28;20068;-45
2021/11/11 04:28:16;;;;;;;13.65;11.65;;;;;;;6.39;70.25;101591.03;4991069;28;20371;-46
2021/11/11 04:30:44;;;;;;;11.77;10.55;;;;;;;6.38;70.39;101582.31;4993472;28;20033;-45
2021/11/11 04:33:11;;;;;;;12.13;10.85;;;;;;;6.38;70.32;101584.03;5005093;28;20125;-45
2021/11/11 04:35:38;;;;;;;12.95;11.63;;;;;;;6.39;70.35;101577.94;4991390;28;20034;-43
2021/11/11 04:38:10;;;;;;;12.05;10.70;;;;;;;6.36;70.29;101577.88;4998615;28;20304;-45
2021/11/11 04:41:10;;;;;;;13.00;11.65;;;;;;;6.36;70.58;101577.88;5003192;28;20481;-46
2021/11/11 04:59:52;;;;;;;12.18;10.43;;;;;;;6.32;70.45;101570.78;4992404;28;20048;-43
2021/11/11 05:05:01;;;;;;;13.52;10.50;;;;;;;6.31;69.82;101583.03;4995644;28;20029;-43
2021/11/11 05:07:27;;;;;;;11.20;10.05;;;;;;;6.33;69.85;101588.31;5005373;28;20027;-43
2021/11/11 05:09:52;;;;;;;11.52;10.43;;;;;;;6.27;70.53;101574.19;5006773;28;20034;-43
2021/11/11 05:12:18;;;;;;;10.73;9.70;;;;;;;6.28;70.03;101578.56;4992780;28;20027;-43
2021/11/11 05:14:45;;;;;;;11.73;10.00;;;;;;;6.31;69.78;101582.13;4994514;28;20058;-44
2021/11/11 05:17:10;;;;;;;11.40;10.20;;;;;;;6.27;69.95;101586.41;5006164;28;20022;-43
2021/11/11 05:19:35;;;;;;;11.02;9.93;;;;;;;6.25;70.11;101593.34;4996109;28;20022;-44
2021/11/11 05:22:01;;;;;;;11.88;9.55;;;;;;;6.26;70.46;101600.34;4997571;28;20030;-45
2021/11/11 05:24:26;;;;;;;11.65;10.30;;;;;;;6.26;69.97;101590.75;4993089;28;20037;-42
2021/11/11 05:26:51;;;;;;;11.18;10.13;;;;;;;6.29;69.81;101601.31;5001630;28;20478;-44
2021/11/11 05:29:17;;;;;;;10.80;9.80;;;;;;;6.26;69.92;101590.75;5013148;28;20398;-45
2021/11/11 05:31:43;;;;;;;10.43;9.48;;;;;;;6.28;69.94;101590.81;5013185;28;20412;-44
2021/11/11 05:34:08;;;;;;;11.25;10.05;;;;;;;6.29;69.95;101587.31;5014215;28;20029;-44
2021/11/11 05:36:34;;;;;;;11.15;9.98;;;;;;;6.25;69.90;101578.53;5011741;28;20104;-44
2021/11/11 05:38:59;;;;;;;11.75;10.55;;;;;;;6.25;69.86;101572.38;5005917;28;20026;-44
2021/11/11 05:41:24;;;;;;;12.18;10.90;;;;;;;6.22;69.81;101570.59;5004004;28;20032;-44
2021/11/11 05:43:50;;;;;;;11.95;10.73;;;;;;;6.25;69.69;101577.63;5007086;28;20437;-44
2021/11/11 05:46:15;;;;;;;10.70;9.60;;;;;;;6.24;69.71;101581.97;5015183;28;20037;-44
2021/11/11 05:48:41;;;;;;;11.77;10.57;;;;;;;6.22;69.71;101575.81;5015551;28;20441;-44
2021/11/11 05:51:06;;;;;;;11.43;10.32;;;;;;;6.24;69.92;101576.72;5005791;28;20544;-44
2021/11/11 05:53:31;;;;;;;10.70;9.25;;;;;;;6.20;69.94;101580.13;5009811;28;20478;-44
2021/11/11 05:55:57;;;;;;;10.85;9.57;;;;;;;6.18;70.00;101592.31;5001991;28;20038;-44
2021/11/11 05:58:22;;;;;;;9.40;8.50;;;;;;;6.19;69.73;101594.09;5014470;28;20065;-44
2021/11/11 06:00:48;;;;;;;11.38;10.30;;;;;;;6.19;69.85;101585.31;5011859;28;20508;-44
2021/11/11 06:03:13;;;;;;;11.82;10.38;;;;;;;6.21;70.04;101587.16;5002769;28;20113;-44
2021/11/11 06:05:39;;;;;;;10.30;9.30;;;;;;;6.19;70.17;101588.84;4994357;28;20405;-44
2021/11/11 06:08:05;;;;;;;10.80;9.70;;;;;;;6.22;69.90;101591.53;4998073;28;20113;-43
2021/11/11 06:10:30;;;;;;;11.10;9.77;;;;;;;6.19;69.96;101599.31;4998572;28;20034;-43
2021/11/11 06:12:55;;;;;;;10.65;9.52;;;;;;;6.15;69.71;101587.91;4996513;28;20101;-43
2021/11/11 06:15:21;;;;;;;10.88;9.80;;;;;;;6.16;69.49;101588.75;4995242;28;20486;-43
2021/11/11 06:17:51;;;;;;;11.43;9.98;;;;;;;6.15;70.10;101597.47;5008082;28;20041;-43
2021/11/11 06:20:20;;;;;;;10.43;9.40;;;;;;;6.15;69.94;101602.72;5014102;28;20053;-43
2021/11/11 06:22:46;;;;;;;10.60;9.50;;;;;;;6.12;70.14;101595.69;5001111;28;20041;-45
2021/11/11 06:25:12;;;;;;;10.60;9.55;;;;;;;6.14;69.97;101612.31;5001988;28;20156;-43
2021/11/11 06:27:38;;;;;;;10.95;9.85;;;;;;;6.14;69.34;101614.06;5010335;28;20109;-43
2021/11/11 06:30:04;;;;;;;10.77;9.40;;;;;;;6.14;69.90;101601.81;5003789;28;20053;-42
2021/11/11 06:32:30;;;;;;;10.70;9.60;;;;;;;6.13;69.77;101609.63;5013299;28;20026;-44
2021/11/11 06:34:55;;;;;;;11.43;9.32;;;;;;;6.13;69.65;101609.63;5005576;28;20536;-43
2021/11/11 06:37:20;;;;;;;10.77;9.40;;;;;;;6.11;69.77;101619.22;4996653;28;20017;-43
2021/11/11 06:39:46;;;;;;;10.00;9.00;;;;;;;6.14;69.33;101616.69;5013303;28;20105;-42
2021/11/11 06:42:11;;;;;;;11.07;9.90;;;;;;;6.13;69.61;101617.50;5013526;28;20030;-43
2021/11/11 06:44:36;;;;;;;10.13;9.13;;;;;;;6.10;69.76;101620.06;5007680;28;20026;-43
2021/11/11 06:47:01;;;;;;;10.23;9.23;;;;;;;6.09;69.94;101619.16;4994869;28;20023;-43
2021/11/11 06:49:27;;;;;;;11.30;10.10;;;;;;;6.10;69.33;101625.31;4994879;28;20436;-43
2021/11/11 06:51:52;;;;;;;11.75;9.65;;;;;;;6.11;69.61;101632.31;5012911;28;20026;-42
2021/11/11 06:54:17;;;;;;;11.18;10.05;;;;;;;6.09;69.47;101628.75;5014026;28;20045;-43
2021/11/11 06:56:43;;;;;;;12.30;10.68;;;;;;;6.09;69.40;101631.38;5002906;28;20022;-42
2021/11/11 06:59:08;;;;;;;11.27;10.13;;;;;;;6.08;69.34;101627.88;4994542;28;20049;-43
2021/11/11 07:01:33;;;;;;;12.45;11.15;;;;;;;6.09;69.67;101631.38;4993061;28;20026;-44
2021/11/11 07:04:00;;;;;;;12.95;10.55;;;;;;;6.06;69.33;101634.81;4993378;28;20030;-42
2021/11/11 07:06:25;;;;;;;11.57;10.38;;;;;;;6.05;69.39;101630.41;4994585;28;20125;-42
2021/11/11 07:08:50;;;;;;;11.18;9.95;;;;;;;6.07;69.51;101640.94;4994099;28;20027;-43
2021/11/11 07:11:16;;;;;;;11.90;10.70;;;;;;;6.07;69.37;101633.94;4996404;28;20022;-43
2021/11/11 07:13:41;;;;;;;14.32;11.88;;;;;;;6.06;70.00;101639.19;5014024;28;20025;-43
2021/11/11 07:16:06;;;;;;;10.68;9.68;;;;;;;6.06;69.91;101644.41;4996480;28;20062;-43
2021/11/11 07:18:32;;;;;;;12.15;10.85;;;;;;;6.02;69.75;101639.06;5012623;28;20442;-43
2021/11/11 07:20:57;;;;;;;12.75;11.35;;;;;;;6.03;69.64;101640.84;5013473;28;20441;-43
2021/11/11 07:23:23;;;;;;;13.80;10.93;;;;;;;6.02;69.46;101644.28;5013954;28;20478;-43
2021/11/11 07:25:52;;;;;;;11.55;10.30;;;;;;;6.02;69.70;101641.69;5003881;28;20049;-45
2021/11/11 07:28:17;;;;;;;11.95;10.70;;;;;;;6.01;69.55;101641.63;5013322;28;20069;-45
2021/11/11 07:30:46;;;;;;;11.63;10.55;;;;;;;5.96;69.79;101640.63;5011799;28;20062;-45
2021/11/11 07:33:12;;;;;;;12.38;11.00;;;;;;;5.98;69.45;101641.56;5013857;28;20022;-45
2021/11/11 07:35:40;;;;;;;12.02;10.73;;;;;;;5.96;69.70;101631.03;5010468;28;20537;-44
2021/11/11 07:38:05;;;;;;;11.15;10.07;;;;;;;5.93;69.53;101628.34;4993901;28;20026;-46
2021/11/11 07:40:31;;;;;;;11.38;10.27;;;;;;;5.93;69.83;101633.56;4993522;28;20422;-45
2021/11/11 07:42:56;;;;;;;12.55;10.73;;;;;;;5.93;69.54;101615.25;4993783;28;20034;-45
2021/11/11 07:45:25;;;;;;;10.85;9.75;;;;;;;5.97;69.59;101618.84;4998255;28;20113;-45
2021/11/11 07:47:54;;;;;;;11.43;10.23;;;;;;;5.95;69.53;101620.53;4996552;28;20029;-44
2021/11/11 07:50:20;;;;;;;12.25;11.05;;;;;;;5.95;69.99;101624.03;5012920;28;20075;-46
2021/11/11 07:52:45;;;;;;;11.23;10.20;;;;;;;5.96;69.54;101625.78;4999094;28;20042;-45
2021/11/11 07:55:10;;;;;;;10.93;9.75;;;;;;;5.97;69.64;101626.69;4992121;28;20056;-45
2021/11/11 07:57:36;;;;;;;10.88;9.85;;;;;;;5.97;69.77;101630.19;4993129;28;20034;-46
2021/11/11 08:00:05;;;;;;;11.45;10.30;;;;;;;5.98;69.73;101631.06;4993552;28;20486;-45
2021/11/11 08:02:31;;;;;;;11.00;9.45;;;;;;;5.97;69.71;101640.66;4993142;28;20367;-45
2021/11/11 08:04:56;;;;;;;11.50;10.35;;;;;;;5.94;69.41;101635.38;4996627;28;20073;-46
2021/11/11 08:07:22;;;;;;;10.43;9.45;;;;;;;5.95;69.40;101637.13;5013084;28;20529;-45
2021/11/11 08:09:49;;;;;;;11.40;10.20;;;;;;;5.95;69.45;101641.47;5013099;28;20076;-45
2021/11/11 08:12:15;;;;;;;12.10;10.10;;;;;;;5.94;69.18;101639.72;5012452;28;20397;-45
2021/11/11 08:14:40;;;;;;;11.05;9.77;;;;;;;5.97;69.24;101640.66;4991648;28;20117;-45
2021/11/11 08:17:08;;;;;;;10.80;9.70;;;;;;;5.97;69.45;101645.88;4991941;28;20097;-45
2021/11/11 08:19:34;;;;;;;11.38;10.10;;;;;;;5.95;69.38;101642.38;4993014;28;20029;-45
2021/11/11 08:22:00;;;;;;;11.02;9.93;;;;;;;5.97;69.63;101647.66;4992920;28;20031;-45
2021/11/11 08:24:25;;;;;;;11.05;9.90;;;;;;;5.95;69.92;101652.84;4993094;28;20026;-45
2021/11/11 08:26:50;;;;;;;11.52;10.43;;;;;;;5.96;69.26;101648.47;4992917;28;20030;-44
2021/11/11 08:29:17;;;;;;;10.65;9.55;;;;;;;5.93;69.41;101653.66;4992811;28;20037;-45
2021/11/11 08:31:42;;;;;;;12.18;11.00;;;;;;;5.92;69.72;101663.22;4992734;28;20491;-45
2021/11/11 08:34:08;;;;;;;11.00;9.63;;;;;;;5.95;69.50;101663.31;4992641;28;20034;-45
2021/11/11 08:36:34;;;;;;;11.38;9.77;;;;;;;5.93;69.84;101666.75;5010379;28;20033;-45
2021/11/11 08:38:59;;;;;;;11.27;10.20;;;;;;;5.94;69.73;101674.66;4997450;28;20023;-45
2021/11/11 08:41:26;;;;;;;11.52;10.43;;;;;;;5.92;69.56;101673.69;4992382;28;20031;-45
2021/11/11 08:43:53;;;;;;;11.35;10.25;;;;;;;5.89;69.71;101674.50;5010049;28;20104;-45
2021/11/11 08:46:18;;;;;;;10.75;9.65;;;;;;;5.88;69.80;101667.50;5002333;28;20025;-45
2021/11/11 08:48:43;;;;;;;10.00;9.00;;;;;;;5.94;69.70;101671.13;4993106;28;20038;-44
2021/11/11 08:51:09;;;;;;;10.75;9.65;;;;;;;5.91;69.62;101671.94;4991984;28;20045;-44
2021/11/11 08:53:35;;;;;;;10.52;9.43;;;;;;;5.90;70.16;101678.91;4993736;28;20424;-44
2021/11/11 08:56:00;;;;;;;9.75;8.82;;;;;;;5.90;69.39;101678.00;5000216;28;20030;-45
2021/11/11 08:58:29;;;;;;;10.77;9.77;;;;;;;5.87;70.04;101667.47;4991861;28;20037;-45
2021/11/11 09:00:56;;;;;;;10.45;9.45;;;;;;;5.89;69.47;101668.38;4991193;28;20029;-45
2021/11/11 09:03:21;;;;;;;11.02;9.68;;;;;;;5.87;69.63;101672.72;4992409;28;20057;-45
2021/11/11 09:05:47;;;;;;;10.73;9.70;;;;;;;5.90;69.82;101680.63;4992303;28;20050;-45
2021/11/11 09:08:14;;;;;;;10.60;9.48;;;;;;;5.92;69.88;101681.56;4992515;28;20386;-45
2021/11/11 09:10:42;;;;;;;10.52;9.43;;;;;;;5.94;69.93;101681.59;4992220;28;20023;-45
2021/11/11 09:13:08;;;;;;;12.23;10.32;;;;;;;5.95;69.80;101676.41;4992258;28;20026;-45
2021/11/11 09:15:33;;;;;;;10.25;9.27;;;;;;;5.95;69.50;101665.94;5001323;28;20115;-45
2021/11/11 09:18:01;;;;;;;11.25;10.05;;;;;;;5.95;69.55;101663.31;5000501;28;20034;-45
2021/11/11 09:20:27;;;;;;;10.68;9.00;;;;;;;5.96;70.02;101661.56;4992108;28;20058;-45
2021/11/11 09:22:56;;;;;;;10.13;9.13;;;;;;;5.97;69.45;101665.97;4992259;28;20026;-45
2021/11/11 09:25:23;;;;;;;10.82;8.95;;;;;;;5.98;69.89;101660.78;4992475;28;20206;-44
2021/11/11 09:27:49;;;;;;;9.68;8.63;;;;;;;5.98;69.31;101662.50;4991892;28;20026;-45
2021/11/11 09:30:20;;;;;;;10.20;8.68;;;;;;;5.99;69.83;101665.16;4992224;28;20037;-44
2021/11/11 09:32:45;;;;;;;9.05;8.15;;;;;;;5.99;69.93;101664.25;4992269;28;20077;-45
2021/11/11 09:35:12;;;;;;;11.05;9.43;;;;;;;5.98;69.46;101668.63;4992717;28;20030;-45
2021/11/11 09:37:39;;;;;;;9.65;8.65;;;;;;;5.99;69.28;101674.75;4991864;28;20189;-46
2021/11/11 09:40:08;;;;;;;8.48;7.68;;;;;;;5.98;69.40;101668.63;4992310;28;20115;-45
2021/11/11 09:42:35;;;;;;;10.82;8.93;;;;;;;6.00;69.93;101671.31;5002506;28;20381;-45
2021/11/11 09:45:01;;;;;;;9.00;7.97;;;;;;;5.99;69.38;101669.50;5000666;28;20026;-45
2021/11/11 09:47:30;;;;;;;10.20;8.85;;;;;;;6.00;69.80;101660.81;5011692;28;20034;-45
2021/11/11 09:49:56;;;;;;;11.48;8.50;;;;;;;5.99;69.70;101665.16;4999700;28;20039;-45
2021/11/11 09:52:22;;;;;;;11.40;8.80;;;;;;;5.99;69.53;101664.25;4991818;28;20037;-45
2021/11/11 10:00:16;;;;;;;12.00;8.98;;;;;;;5.98;69.53;101658.16;4992264;28;20614;-45
2021/11/11 10:02:42;;;;;;;9.30;8.40;;;;;;;5.99;69.68;101659.03;4991782;28;20117;-45
2021/11/11 10:05:08;;;;;;;9.48;8.48;;;;;;;6.00;69.76;101666.06;4991945;28;20061;-45
2021/11/11 10:07:36;;;;;;;11.45;8.75;;;;;;;5.99;70.07;101665.16;4990449;28;20049;-44
2021/11/11 10:10:02;;;;;;;9.32;8.32;;;;;;;6.00;69.50;101655.59;5004922;28;20029;-45
2021/11/11 10:12:29;;;;;;;9.30;7.85;;;;;;;6.01;69.81;101658.22;5001649;28;20040;-42
2021/11/11 10:15:14;;;;;;;9.13;8.32;;;;;;;6.01;69.72;101663.44;4995345;28;20489;-42
2021/11/11 10:17:49;;;;;;;10.55;7.97;;;;;;;6.01;69.97;101659.97;4995537;28;20061;-42
2021/11/11 10:20:15;;;;;;;9.77;8.35;;;;;;;6.01;69.85;101668.69;5004205;28;20026;-43
2021/11/11 10:22:42;;;;;;;9.45;8.40;;;;;;;6.01;69.91;101658.22;4999396;28;20105;-42
2021/11/11 10:25:11;;;;;;;8.85;7.88;;;;;;;6.01;69.88;101663.44;4999673;28;20026;-44
2021/11/11 10:27:43;;;;;;;9.20;8.30;;;;;;;6.01;70.05;101655.59;5014336;28;20033;-43
2021/11/11 10:30:28;;;;;;;9.75;8.35;;;;;;;6.02;69.75;101657.38;5014749;28;20033;-43
2021/11/11 10:32:55;;;;;;;9.07;7.60;;;;;;;6.02;69.64;101649.53;5013929;28;20026;-42
2021/11/11 10:35:21;;;;;;;8.30;7.35;;;;;;;6.05;69.96;101647.84;5014752;28;20433;-42
2021/11/11 10:38:12;;;;;;;8.38;7.55;;;;;;;6.02;70.05;101652.16;5014431;28;20112;-43
2021/11/11 10:40:52;;;;;;;9.32;8.18;;;;;;;6.03;69.82;101651.34;4995231;28;20076;-45
2021/11/11 10:43:22;;;;;;;8.73;7.90;;;;;;;6.05;69.50;101656.63;4994115;28;20058;-45
2021/11/11 10:45:52;;;;;;;9.27;7.88;;;;;;;6.06;69.48;101654.91;4994894;28;20061;-45
2021/11/11 10:48:20;;;;;;;9.83;8.03;;;;;;;6.07;69.83;101646.19;4994554;28;20698;-45
2021/11/11 10:50:51;;;;;;;8.15;7.40;;;;;;;6.06;69.46;101639.19;4993200;28;20479;-44
2021/11/11 10:53:26;;;;;;;;;;;;;;;6.03;70.10;101643.47;4995244;28;20040;-44
2021/11/11 10:55:53;;;;;;;8.02;7.22;;;;;;;6.02;69.84;101639.06;5001917;28;19959;-46
2021/11/11 10:58:25;;;;;;;8.63;7.72;;;;;;;6.03;70.29;101630.38;5014131;28;20018;-45
2021/11/11 11:00:56;;;;;;;8.18;7.38;;;;;;;6.05;70.15;101630.41;5000600;28;20089;-45
2021/11/11 11:03:43;;;;;;;8.20;7.38;;;;;;;6.06;69.83;101619.09;4994481;28;20497;-45
2021/11/11 11:06:15;;;;;;;9.25;7.85;;;;;;;6.06;69.95;101626.94;4994484;28;20042;-45
2021/11/11 11:09:06;;;;;;;9.07;7.60;;;;;;;6.07;69.94;101615.63;4993014;28;20031;-45
2021/11/11 11:11:37;;;;;;;10.07;7.93;;;;;;;6.08;70.17;101611.28;4994282;28;20521;-44
2021/11/11 11:14:14;;;;;;;8.07;7.22;;;;;;;6.07;69.81;101615.63;4993180;28;20441;-45
2021/11/11 11:16:39;;;;;;;8.27;7.05;;;;;;;6.09;69.43;101613.03;4994388;28;20031;-46
2021/11/11 11:19:10;;;;;;;9.90;7.35;;;;;;;6.09;70.02;101603.44;5010155;28;20114;-45
2021/11/11 11:21:55;;;;;;;8.88;7.20;;;;;;;6.11;69.99;101617.47;4993266;28;20054;-45
2021/11/11 11:24:24;;;;;;;10.85;7.97;;;;;;;6.11;70.02;101617.47;4994296;28;20030;-45
2021/11/11 11:26:56;;;;;;;8.73;7.20;;;;;;;6.12;70.15;101614.00;4993980;28;20026;-46
2021/11/11 11:29:37;;;;;;;8.25;7.47;;;;;;;6.13;70.03;101612.25;4996422;28;20109;-45
2021/11/11 11:32:13;;;;;;;8.52;7.63;;;;;;;6.14;70.14;101614.91;5007071;28;20030;-45
2021/11/11 11:34:42;;;;;;;9.10;7.47;;;;;;;6.13;69.58;101613.16;4994060;28;20039;-46
2021/11/11 11:37:11;;;;;;;8.35;6.95;;;;;;;6.14;70.25;101617.53;4993865;28;20149;-45
2021/11/11 11:39:42;;;;;;;9.10;7.07;;;;;;;6.15;70.12;101613.19;4997726;28;20018;-45
2021/11/11 11:42:35;;;;;;;8.98;7.65;;;;;;;6.15;69.82;101607.97;5013139;28;20026;-45
2021/11/11 11:45:24;;;;;;;8.10;7.28;;;;;;;6.16;69.57;101610.63;5012482;28;20081;-45
2021/11/11 11:48:06;;;;;;;9.25;7.25;;;;;;;6.15;69.87;101597.47;5011698;28;20037;-45